Time;durP1;ratioP1;P1;durP2;ratioP2;P2;SDS_P1;SDS_P2;PMS_P1;PMS_P2;Temp;Humidity;BMP_temperature;BMP_pressure;BME280_temperature;BME280_humidity;BME280_pressure;Samples;Min_cycle;Max_cycle;Signal;HPM_P1;HPM_P2
2022/01/31 00:00:25;;;;;;;2.40;1.40;;;0.50;1.40;;;0.91;100.00;95694.52;648703;216;31494;-76
2022/01/31 00:03:09;;;;;;;2.70;1.10;;;0.40;1.40;;;0.80;100.00;95676.58;649780;212;32147;-76
2022/01/31 00:05:51;;;;;;;1.60;0.93;;;0.30;1.40;;;0.71;100.00;95666.34;644989;216;31747;-76
2022/01/31 00:08:33;;;;;;;0.82;0.82;;;0.30;1.40;;;0.62;100.00;95656.34;651244;212;31529;-76
2022/01/31 00:11:15;;;;;;;0.80;0.80;;;0.20;1.40;;;0.69;100.00;95655.42;646156;212;31552;-76
2022/01/31 00:14:02;;;;;;;1.70;1.10;;;0.30;1.40;;;0.83;100.00;95660.25;646590;216;31490;-76
2022/01/31 00:19:31;;;;;;;1.20;0.85;;;0.50;1.40;;;1.09;100.00;95646.39;622892;223;32017;-77
2022/01/31 00:22:13;;;;;;;0.70;0.70;;;0.60;1.40;;;1.14;100.00;95644.70;645855;216;32098;-76
2022/01/31 00:25:00;;;;;;;2.60;0.50;;;0.50;1.40;;;1.10;100.00;95646.89;646768;216;31694;-74
2022/01/31 00:27:48;;;;;;;0.70;0.70;;;0.40;1.40;;;0.94;100.00;95638.22;649126;212;31682;-76
2022/01/31 00:30:32;;;;;;;4.40;0.90;;;0.40;1.40;;;1.01;100.00;95628.25;646623;216;31883;-76
2022/01/31 00:35:51;;;;;;;3.00;0.88;;;0.50;1.40;;;1.14;100.00;95615.23;643532;214;31568;-75
2022/01/31 00:38:34;;;;;;;0.80;0.80;;;0.60;1.40;;;1.17;100.00;95606.25;655426;216;31505;-76
2022/01/31 00:41:19;;;;;;;1.45;1.35;;;0.70;1.40;;;1.24;100.00;95594.93;645835;216;42157;-76
2022/01/31 00:44:13;;;;;;;0.50;0.50;;;0.80;1.40;;;1.35;100.00;95588.47;647208;212;31507;-76
2022/01/31 00:46:56;;;;;;;1.00;0.52;;;0.90;1.40;;;1.35;100.00;95583.19;646602;216;42151;-77
2022/01/31 00:49:35;;;;;;;1.40;1.30;;;0.90;1.40;;;1.39;100.00;95568.98;647978;216;31579;-76
2022/01/31 00:52:16;;;;;;;1.30;0.90;;;0.90;1.40;;;1.38;100.00;95561.06;647576;216;31628;-76
2022/01/31 00:54:58;;;;;;;1.30;0.85;;;0.90;1.40;;;1.31;100.00;95567.30;646808;216;31534;-76
2022/01/31 00:57:40;;;;;;;1.40;1.20;;;0.70;1.40;;;1.21;100.00;95552.38;651829;212;31547;-76
2022/01/31 01:00:21;;;;;;;4.00;1.33;;;0.60;1.40;;;1.14;100.00;95571.70;646760;216;31545;-76
2022/01/31 01:03:03;;;;;;;2.20;1.25;;;0.40;1.40;;;1.07;100.00;95566.50;619351;222;42502;-76
2022/01/31 01:05:45;;;;;;;1.10;1.00;;;0.40;1.40;;;1.07;100.00;95569.38;648629;212;31736;-77
2022/01/31 01:08:27;;;;;;;1.00;0.80;;;0.30;1.40;;;1.13;100.00;95579.32;649691;212;31512;-76
2022/01/31 01:11:09;;;;;;;1.30;0.80;;;0.40;1.40;;;1.27;100.00;95562.89;647546;216;31620;-76
2022/01/31 01:13:50;;;;;;;3.40;1.05;;;0.60;1.40;;;1.26;100.00;95562.18;650937;216;31632;-76
2022/01/31 01:16:32;;;;;;;0.50;0.50;;;0.40;1.40;;;1.14;100.00;95556.70;618350;225;32183;-77
2022/01/31 01:19:16;;;;;;;0.90;0.60;;;0.50;1.40;;;1.12;100.00;95553.89;646699;212;31636;-75
2022/01/31 01:22:04;;;;;;;1.60;1.00;;;0.60;1.40;;;1.22;100.00;95549.35;649875;216;31533;-75
2022/01/31 01:24:48;;;;;;;1.20;0.90;;;0.70;1.40;;;1.40;100.00;95546.60;627323;222;32422;-76
2022/01/31 01:27:27;;;;;;;1.40;1.10;;;0.90;1.40;;;1.44;100.00;95532.83;647597;212;31496;-76
2022/01/31 01:30:11;;;;;;;1.30;1.00;;;0.80;1.40;;;1.46;100.00;95548.03;653867;216;32625;-75
2022/01/31 01:33:05;;;;;;;2.00;1.10;;;0.90;1.40;;;1.55;100.00;95537.77;623141;222;32010;-76
2022/01/31 01:35:54;;;;;;;1.10;0.80;;;1.00;1.40;;;1.53;100.00;95536.84;647261;216;31596;-74
2022/01/31 01:38:41;;;;;;;2.20;1.50;;;0.90;1.40;;;1.48;100.00;95527.45;653000;216;31521;-77
2022/01/31 01:41:23;;;;;;;1.15;1.08;;;0.90;1.40;;;1.52;100.00;95517.32;622487;222;32032;-76
2022/01/31 01:44:05;;;;;;;1.05;0.80;;;1.00;1.40;;;1.43;100.00;95494.47;648746;216;31478;-76
2022/01/31 01:46:48;;;;;;;1.10;1.00;;;0.90;1.40;;;1.36;100.00;95480.27;618497;226;42616;-75
2022/01/31 01:49:30;;;;;;;0.88;0.88;;;0.90;1.40;;;1.36;100.00;95469.38;646573;212;31532;-76
2022/01/31 01:52:12;;;;;;;0.80;0.80;;;0.90;1.40;;;1.39;100.00;95463.59;648338;212;31541;-76
2022/01/31 01:54:54;;;;;;;0.75;0.75;;;0.90;1.40;;;1.39;100.00;95456.81;619213;222;31836;-75
2022/01/31 01:57:43;;;;;;;2.30;1.30;;;0.90;1.40;;;1.40;100.00;95450.95;649202;212;31531;-77
2022/01/31 02:00:27;;;;;;;1.20;0.80;;;0.90;1.40;;;1.39;100.00;95431.92;652474;212;31489;-76
2022/01/31 02:03:07;;;;;;;0.90;0.90;;;0.90;1.40;;;1.45;100.00;95419.60;623063;222;44222;-75
2022/01/31 02:05:49;;;;;;;0.40;0.35;;;0.90;1.40;;;1.36;100.00;95399.78;621462;222;32122;-76
2022/01/31 02:08:39;;;;;;;2.40;1.30;;;0.90;1.40;;;1.42;100.00;95389.44;620504;222;31957;-76
2022/01/31 02:13:47;;;;;;;1.60;0.90;;;0.90;1.40;;;1.28;100.00;95382.45;621498;226;31918;-77
2022/01/31 02:16:31;;;;;;;0.68;0.57;;;0.80;1.40;;;1.37;100.00;95396.53;649231;212;31518;-74
2022/01/31 02:19:19;;;;;;;1.70;1.00;;;0.90;1.40;;;1.58;100.00;95396.92;648120;216;31673;-76
2022/01/31 02:22:00;;;;;;;0.80;0.80;;;1.00;1.40;;;1.68;100.00;95392.95;633714;222;31741;-76
2022/01/31 02:24:42;;;;;;;1.20;0.90;;;1.00;1.40;;;1.71;100.00;95385.45;623863;222;31904;-75
2022/01/31 02:27:28;;;;;;;1.90;1.40;;;0.90;1.40;;;1.60;100.00;95373.23;646591;216;31568;-77
2022/01/31 02:30:11;;;;;;;0.60;0.60;;;0.90;1.40;;;1.65;100.00;95366.87;649775;212;31529;-75
2022/01/31 02:32:52;;;;;;;1.45;1.15;;;0.90;1.40;;;1.43;100.00;95348.70;646126;216;31699;-76
2022/01/31 02:35:54;;;;;;;2.22;1.42;;;0.80;1.40;;;1.34;100.00;95343.47;651049;216;32302;-75
2022/01/31 02:38:36;;;;;;;1.05;0.90;;;0.80;1.40;;;1.29;100.00;95330.51;646829;216;42202;-75
2022/01/31 02:41:17;;;;;;;0.60;0.40;;;0.70;1.40;;;1.25;100.00;95346.95;651426;216;42190;-75
2022/01/31 02:44:00;;;;;;;3.50;1.08;;;0.70;1.40;;;1.34;100.00;95345.92;650285;212;42173;-76
2022/01/31 02:46:47;;;;;;;1.20;0.80;;;0.80;1.40;;;1.30;100.00;95331.63;646309;216;31669;-76
2022/01/31 02:49:27;;;;;;;1.23;0.62;;;0.80;1.40;;;1.31;100.00;95330.51;646062;216;31871;-75
2022/01/31 02:52:10;;;;;;;0.60;0.60;;;0.80;1.40;;;1.36;100.00;95335.91;647248;212;32767;-77
2022/01/31 02:54:49;;;;;;;1.20;1.10;;;0.80;1.40;;;1.40;100.00;95320.09;651293;212;31507;-76
2022/01/31 02:57:31;;;;;;;0.60;0.50;;;0.80;1.40;;;1.48;100.00;95307.84;648189;216;31548;-76
2022/01/31 03:00:13;;;;;;;1.75;1.27;;;0.80;1.40;;;1.61;100.00;95308.86;646723;216;31539;-76
2022/01/31 03:02:55;;;;;;;0.60;0.37;;;0.90;1.40;;;1.56;100.00;95298.01;619707;226;32704;-76
2022/01/31 03:05:36;;;;;;;2.00;1.50;;;0.80;1.40;;;1.50;100.00;95289.63;618197;222;32042;-76
2022/01/31 03:08:18;;;;;;;0.80;0.80;;;0.80;1.40;;;1.47;100.00;95285.77;646578;212;31793;-76
2022/01/31 03:11:00;;;;;;;0.70;0.70;;;0.80;1.40;;;1.55;100.00;95277.05;624945;226;31975;-77
2022/01/31 03:13:41;;;;;;;0.95;0.65;;;0.90;1.40;;;1.43;100.00;95259.06;649393;212;31680;-76
2022/01/31 03:16:23;;;;;;;2.60;0.67;;;0.90;1.40;;;1.40;100.00;95265.88;647791;216;31682;-76
2022/01/31 03:19:05;;;;;;;0.82;0.82;;;0.90;1.40;;;1.53;100.00;95273.94;644851;212;32185;-77
2022/01/31 03:21:47;;;;;;;1.00;0.90;;;0.90;1.40;;;1.49;100.00;95276.37;650193;216;31648;-77
2022/01/31 03:24:28;;;;;;;1.50;1.30;;;0.90;1.40;;;1.59;100.00;95275.38;650015;216;31543;-77
2022/01/31 03:27:12;;;;;;;0.70;0.70;;;0.90;1.40;;;1.62;100.00;95266.71;647109;212;42490;-74
2022/01/31 03:30:00;;;;;;;1.00;1.00;;;0.80;1.40;;;1.58;100.00;95260.15;647970;216;31547;-76
2022/01/31 03:32:42;;;;;;;0.60;0.50;;;0.80;1.40;;;1.42;100.00;95261.84;649933;216;31665;-76
2022/01/31 03:35:51;;;;;;;4.95;1.27;;;0.80;1.40;;;1.36;100.00;95240.84;619089;226;31984;-76
2022/01/31 03:38:34;;;;;;;1.20;0.90;;;0.80;1.40;;;1.42;100.00;95214.46;648771;216;31581;-77
2022/01/31 03:41:15;;;;;;;1.40;1.30;;;0.90;1.40;;;1.46;100.00;95214.70;649991;216;31955;-76
2022/01/31 03:43:56;;;;;;;0.60;0.60;;;0.90;1.40;;;1.56;100.00;95202.48;648054;216;32132;-76
2022/01/31 03:46:38;;;;;;;2.15;0.90;;;0.90;1.40;;;1.44;100.00;95187.72;647497;216;31523;-76
2022/01/31 03:49:20;;;;;;;4.00;1.35;;;1.00;1.40;;;1.45;100.00;95178.44;617278;226;32003;-75
2022/01/31 03:52:01;;;;;;;2.30;0.60;;;1.00;1.40;;;1.43;100.00;95177.41;618572;226;31832;-76
2022/01/31 03:54:43;;;;;;;3.50;1.70;;;1.00;1.40;;;1.44;100.00;95177.52;645678;213;31545;-76
2022/01/31 03:57:25;;;;;;;0.98;0.95;;;1.10;1.40;;;1.45;100.00;95180.58;620655;226;31897;-76
2022/01/31 04:00:08;;;;;;;0.80;0.80;;;1.10;1.40;;;1.58;100.00;95183.80;618377;226;31956;-76
2022/01/31 04:02:53;;;;;;;0.50;0.50;;;1.10;1.40;;;1.79;100.00;95180.10;644802;216;31627;-76
2022/01/31 04:05:37;;;;;;;1.52;0.57;;;1.10;1.40;;;1.77;100.00;95154.91;649745;213;31489;-76
2022/01/31 04:08:16;;;;;;;1.40;1.30;;;1.10;1.40;;;1.60;100.00;95123.51;647858;216;32191;-76
2022/01/31 04:11:07;;;;;;;1.75;1.27;;;1.10;1.40;;;1.58;100.00;95136.84;621829;226;32092;-75
2022/01/31 04:13:54;;;;;;;1.10;1.00;;;1.10;1.40;;;1.70;100.00;95130.87;652079;212;31556;-76
2022/01/31 04:16:36;;;;;;;5.35;1.05;;;1.10;1.40;;;1.62;100.00;95114.38;649742;212;31599;-76
2022/01/31 04:19:18;;;;;;;0.50;0.50;;;1.10;1.40;;;1.55;100.00;95105.58;647101;212;31774;-76
2022/01/31 04:21:59;;;;;;;1.95;1.40;;;1.10;1.40;;;1.68;100.00;95102.80;650941;212;32135;-77
2022/01/31 04:24:42;;;;;;;1.75;1.02;;;1.10;1.40;;;1.69;100.00;95091.91;648165;216;31569;-76
2022/01/31 04:27:27;;;;;;;0.60;0.40;;;1.10;1.40;;;1.57;100.00;95083.47;646109;216;42813;-76
2022/01/31 04:30:07;;;;;;;1.40;1.30;;;1.20;1.40;;;1.61;100.00;95076.77;654362;216;32101;-76
2022/01/31 04:32:47;;;;;;;0.60;0.50;;;1.20;1.40;;;1.62;100.00;95075.65;648922;216;31521;-76
2022/01/31 04:35:52;;;;;;;1.50;0.80;;;1.20;1.40;;;1.60;100.00;95065.80;651236;216;31552;-75
2022/01/31 04:38:33;;;;;;;0.80;0.80;;;1.20;1.40;;;1.54;100.00;95075.97;649262;212;31553;-76
2022/01/31 04:41:15;;;;;;;0.80;0.80;;;1.20;1.40;;;1.57;100.00;95069.80;649031;216;31780;-76
2022/01/31 04:44:02;;;;;;;1.60;1.50;;;1.20;1.40;;;1.59;100.00;95060.46;618424;226;32027;-76
2022/01/31 04:49:12;;;;;;;3.50;1.20;;;1.20;1.40;;;1.65;100.00;95012.19;618506;226;31894;-76
2022/01/31 04:51:57;;;;;;;1.20;0.80;;;1.20;1.40;;;1.60;100.00;94994.00;647798;216;31905;-75
2022/01/31 04:54:45;;;;;;;0.90;0.90;;;1.20;1.40;;;1.66;100.00;94987.67;649352;216;32241;-76
2022/01/31 04:57:29;;;;;;;1.10;1.05;;;1.20;1.40;;;1.66;100.00;94982.38;650252;216;31686;-75
2022/01/31 05:00:11;;;;;;;2.67;0.88;;;1.20;1.40;;;1.67;100.00;94999.59;622460;226;32006;-76
2022/01/31 05:02:54;;;;;;;0.95;0.70;;;1.20;1.40;;;1.67;100.00;95016.53;648383;216;31996;-75
2022/01/31 05:05:35;;;;;;;0.82;0.70;;;1.20;1.40;;;1.75;100.00;95007.52;644387;216;31836;-76
2022/01/31 05:08:26;;;;;;;1.60;1.50;;;1.30;1.40;;;1.81;100.00;95011.66;647141;212;31486;-74
2022/01/31 05:11:12;;;;;;;2.72;1.12;;;1.40;1.40;;;1.76;100.00;94999.66;647297;216;32087;-75
2022/01/31 05:13:52;;;;;;;1.10;1.00;;;1.40;1.40;;;1.79;100.00;94986.64;649438;216;32642;-76
2022/01/31 05:19:08;;;;;;;1.37;1.20;;;1.60;1.40;;;1.90;100.00;94963.19;649117;216;31689;-76
2022/01/31 05:21:50;;;;;;;2.40;1.42;;;1.50;1.40;;;2.00;100.00;94952.05;651477;216;32125;-76
2022/01/31 05:24:31;;;;;;;1.70;1.60;;;1.60;1.40;;;2.10;100.00;94942.16;651306;212;32308;-77
2022/01/31 05:27:14;;;;;;;3.00;0.70;;;1.60;1.40;;;2.04;100.00;94949.66;646329;216;31548;-76
2022/01/31 05:30:47;;;;;;;1.90;1.10;;;1.70;1.40;;;2.12;100.00;94952.43;621334;222;31912;-76
2022/01/31 05:35:58;;;;;;;1.00;0.90;;;1.90;1.40;;;2.30;100.00;94964.69;641278;219;31532;-76
2022/01/31 05:38:45;;;;;;;5.50;1.40;;;2.00;1.40;;;2.40;100.00;94965.45;644987;212;31599;-73
2022/01/31 05:41:27;;;;;;;0.98;0.82;;;2.00;1.40;;;2.48;100.00;94950.36;650318;212;31907;-73
2022/01/31 05:44:17;;;;;;;1.00;1.00;;;2.10;1.40;;;2.42;100.00;94939.11;648578;212;31991;-75
2022/01/31 05:47:01;;;;;;;3.45;1.83;;;2.10;1.40;;;2.50;100.00;94968.60;650009;216;31533;-76
2022/01/31 05:49:49;;;;;;;1.80;1.70;;;2.10;1.40;;;2.51;100.00;94965.61;644083;212;31770;-75
2022/01/31 05:52:33;;;;;;;1.67;1.25;;;2.10;1.40;;;2.59;100.00;94957.21;647744;212;31544;-76
2022/01/31 05:55:15;;;;;;;1.55;1.45;;;2.20;1.40;;;2.58;100.00;94970.64;646190;216;31551;-75
2022/01/31 05:58:02;;;;;;;1.60;1.50;;;2.30;1.40;;;2.66;100.00;94965.70;649535;216;32111;-76
2022/01/31 06:00:50;;;;;;;1.80;1.10;;;2.30;1.40;;;2.64;100.00;94972.13;646215;216;31512;-75
2022/01/31 06:03:38;;;;;;;1.75;1.37;;;2.30;1.40;;;2.58;100.00;94962.41;653018;212;31680;-74
2022/01/31 06:06:26;;;;;;;1.17;1.08;;;2.30;1.40;;;2.62;100.00;94969.13;620303;226;32203;-76
2022/01/31 06:11:48;;;;;;;2.83;1.30;;;2.30;1.40;;;2.54;100.00;94966.41;649924;216;31582;-76
2022/01/31 06:14:26;;;;;;;2.40;1.50;;;2.20;1.40;;;2.49;100.00;94958.11;648204;216;31576;-76
2022/01/31 06:17:08;;;;;;;0.80;0.80;;;2.10;1.40;;;2.48;100.00;94952.92;650344;212;42761;-75
2022/01/31 06:19:49;;;;;;;1.65;1.15;;;2.10;1.40;;;2.35;100.00;94954.32;643131;215;31459;-75
2022/01/31 06:22:31;;;;;;;0.70;0.70;;;2.00;1.40;;;2.37;100.00;94923.52;620397;222;32073;-76
2022/01/31 06:25:13;;;;;;;1.60;1.30;;;2.10;1.40;;;2.34;100.00;94921.38;650846;216;42276;-75
2022/01/31 06:27:55;;;;;;;0.50;0.50;;;2.00;1.40;;;2.33;100.00;94904.47;652447;212;31519;-76
2022/01/31 06:30:36;;;;;;;1.23;1.12;;;2.00;1.40;;;2.38;100.00;94905.55;646942;212;31524;-76
2022/01/31 06:35:51;;;;;;;5.72;1.20;;;2.10;1.40;;;2.37;100.00;94903.08;648683;216;31551;-75
2022/01/31 06:38:35;;;;;;;0.80;0.80;;;2.10;1.40;;;2.39;100.00;94906.08;646918;216;42775;-75
2022/01/31 06:41:16;;;;;;;1.10;1.00;;;2.10;1.40;;;2.34;100.00;94886.17;648827;212;31552;-75
2022/01/31 06:43:56;;;;;;;0.70;0.68;;;2.00;1.40;;;2.43;100.00;94873.91;622651;226;31874;-75
2022/01/31 06:46:38;;;;;;;1.70;0.70;;;2.10;1.40;;;2.41;100.00;94869.75;651250;212;42363;-75
2022/01/31 06:49:20;;;;;;;1.75;0.70;;;2.10;1.40;;;2.39;100.00;94851.78;622680;222;31839;-75
2022/01/31 06:52:05;;;;;;;1.40;1.30;;;2.10;1.40;;;2.60;100.00;94846.47;644719;212;32127;-76
2022/01/31 06:54:50;;;;;;;1.20;1.20;;;2.30;1.40;;;2.53;100.00;94839.28;652605;216;31547;-76
2022/01/31 06:57:33;;;;;;;0.70;0.70;;;2.20;1.40;;;2.49;100.00;94837.25;622985;226;32211;-74
2022/01/31 07:00:14;;;;;;;1.23;1.12;;;2.20;1.40;;;2.48;100.00;94829.66;647534;216;31994;-77
2022/01/31 07:03:03;;;;;;;2.20;1.00;;;2.20;1.40;;;2.51;100.00;94813.98;648504;216;31843;-76
2022/01/31 07:05:43;;;;;;;1.90;1.20;;;2.10;1.40;;;2.50;100.00;94802.75;647649;216;31676;-77
2022/01/31 07:08:25;;;;;;;1.70;1.00;;;2.20;1.40;;;2.51;100.00;94809.86;649985;216;33586;-78
2022/01/31 07:11:14;;;;;;;1.20;0.85;;;2.20;1.40;;;2.55;100.00;94803.86;648409;216;31525;-75
2022/01/31 07:14:04;;;;;;;0.80;0.70;;;2.20;1.40;;;2.56;100.00;94791.98;648552;216;31524;-77
2022/01/31 07:16:42;;;;;;;0.80;0.77;;;2.30;1.40;;;2.59;100.00;94782.88;651150;216;31475;-77
2022/01/31 07:21:59;;;;;;;1.10;0.80;;;2.30;1.40;;;2.58;100.00;94786.52;647830;216;31635;-78
2022/01/31 07:24:48;;;;;;;1.00;0.85;;;2.30;1.40;;;2.66;100.00;94780.70;647410;216;32114;-77
2022/01/31 07:27:29;;;;;;;3.45;1.35;;;2.30;1.40;;;2.69;100.00;94782.94;649398;212;32137;-78
2022/01/31 07:30:17;;;;;;;1.70;0.80;;;2.40;1.40;;;2.71;100.00;94760.02;652555;216;31562;-74
2022/01/31 07:32:59;;;;;;;1.73;1.00;;;2.40;1.40;;;2.82;100.00;94757.23;621287;222;32064;-76
2022/01/31 07:35:54;;;;;;;1.08;0.70;;;2.50;1.40;;;2.88;100.00;94737.25;646562;212;31891;-74
2022/01/31 07:38:42;;;;;;;1.12;0.90;;;2.60;1.40;;;2.93;100.00;94725.77;648110;216;34445;-78
2022/01/31 07:41:23;;;;;;;0.80;0.70;;;2.60;1.40;;;3.06;100.00;94722.20;652615;212;31508;-77
2022/01/31 07:44:11;;;;;;;1.60;0.70;;;2.80;1.40;;;3.12;100.00;94710.66;646050;216;31525;-77
2022/01/31 07:46:59;;;;;;;3.45;0.88;;;2.90;1.40;;;3.28;100.00;94704.86;646499;212;31604;-77
2022/01/31 07:49:40;;;;;;;3.08;0.80;;;3.00;1.40;;;3.33;100.00;94714.27;648374;216;31555;-78
2022/01/31 07:52:22;;;;;;;2.30;0.95;;;3.00;1.40;;;3.32;100.00;94715.55;617720;226;32051;-78
2022/01/31 07:55:04;;;;;;;1.40;0.80;;;3.00;1.40;;;3.33;100.00;94705.91;622107;226;31834;-78
2022/01/31 07:57:49;;;;;;;1.25;0.60;;;3.00;1.40;;;3.35;100.00;94697.56;652054;216;31524;-77
2022/01/31 08:00:33;;;;;;;1.50;0.50;;;3.10;1.40;;;3.45;100.00;94684.42;616388;226;31920;-77
2022/01/31 08:03:16;;;;;;;1.75;0.80;;;3.20;1.40;;;3.54;100.00;94676.14;651701;216;31544;-78
2022/01/31 08:05:58;;;;;;;0.90;0.90;;;3.20;1.40;;;3.64;100.00;94662.50;618081;222;32047;-78
2022/01/31 08:08:41;;;;;;;0.50;0.50;;;3.30;1.40;;;3.72;100.00;94656.41;648470;216;31552;-77
2022/01/31 08:11:23;;;;;;;1.00;0.90;;;3.40;1.40;;;3.68;100.00;94651.63;645551;212;31478;-77
2022/01/31 08:14:07;;;;;;;0.75;0.50;;;3.40;1.40;;;3.81;100.00;94628.45;649075;216;31650;-77
2022/01/31 08:16:53;;;;;;;3.20;1.87;;;3.50;1.40;;;3.75;100.00;94641.91;625739;222;31858;-77
2022/01/31 08:19:40;;;;;;;1.95;0.95;;;3.50;1.40;;;3.67;100.00;94647.73;647115;216;31733;-76
2022/01/31 08:22:28;;;;;;;0.60;0.60;;;3.40;1.40;;;3.59;100.00;94639.33;647801;212;31962;-79
2022/01/31 08:25:16;;;;;;;2.55;1.15;;;3.30;1.40;;;3.49;100.00;94676.47;646803;216;31601;-77
2022/01/31 08:28:10;;;;;;;1.00;0.85;;;3.30;1.40;;;3.47;100.00;94651.83;648795;212;31570;-77
2022/01/31 08:30:58;;;;;;;1.40;0.70;;;3.30;1.40;;;3.32;100.00;94666.81;646438;216;31509;-77
2022/01/31 08:35:53;;;;;;;3.53;1.10;;;3.00;1.40;;;3.12;100.00;94654.32;649898;216;31546;-77
2022/01/31 08:38:38;;;;;;;1.05;0.85;;;3.00;1.40;;;3.03;100.00;94660.48;648165;212;31545;-77
2022/01/31 08:41:19;;;;;;;0.43;0.40;;;2.80;1.40;;;2.93;100.00;94659.55;649974;212;31529;-77
2022/01/31 08:44:03;;;;;;;3.62;0.70;;;2.80;1.40;;;2.93;100.00;94662.27;622823;222;31938;-74
2022/01/31 08:46:45;;;;;;;1.12;0.95;;;2.70;1.40;;;2.89;100.00;94654.75;647317;212;42142;-74
2022/01/31 08:54:36;;;;;;;1.80;1.40;;;2.60;1.40;;;2.85;100.00;94650.11;649802;216;42160;-75
2022/01/31 08:57:27;;;;;;;0.50;0.50;;;2.60;1.40;;;2.78;100.00;94649.38;646817;212;31560;-74
2022/01/31 09:00:10;;;;;;;0.85;0.85;;;2.60;1.40;;;2.70;100.00;94651.88;649423;216;31548;-73
2022/01/31 09:03:05;;;;;;;0.80;0.60;;;2.50;1.40;;;2.65;100.00;94645.47;649462;216;31538;-73
2022/01/31 09:05:40;;;;;;;0.60;0.60;;;2.40;1.40;;;2.74;100.00;94653.62;647205;216;42073;-75
2022/01/31 09:08:22;;;;;;;1.00;0.50;;;2.50;1.40;;;2.74;100.00;94655.39;617980;225;31882;-74
2022/01/31 09:11:10;;;;;;;0.70;0.60;;;2.60;1.40;;;2.82;100.00;94636.48;631667;222;31718;-77
2022/01/31 09:13:52;;;;;;;0.80;0.70;;;2.60;1.40;;;2.88;100.00;94631.95;645980;212;31592;-77
2022/01/31 09:16:35;;;;;;;0.50;0.50;;;2.70;1.40;;;2.85;100.00;94636.09;647527;212;31522;-75
2022/01/31 09:19:20;;;;;;;0.60;0.50;;;2.70;1.40;;;2.92;100.00;94659.71;646565;216;31637;-79
2022/01/31 09:22:07;;;;;;;0.80;0.80;;;2.70;1.40;;;2.95;100.00;94660.28;645879;216;31504;-75
2022/01/31 09:24:54;;;;;;;0.65;0.65;;;2.80;1.40;;;2.99;100.00;94634.22;647478;216;42200;-75
2022/01/31 09:27:36;;;;;;;0.70;0.70;;;2.70;1.40;;;2.95;100.00;94636.67;647744;216;31647;-77
2022/01/31 09:30:26;;;;;;;1.30;0.90;;;2.70;1.40;;;2.87;100.00;94652.89;645693;212;31471;-76
2022/01/31 09:35:53;;;;;;;0.95;0.90;;;2.70;1.40;;;2.92;100.00;94646.80;646004;216;31541;-78
2022/01/31 09:38:42;;;;;;;0.93;0.50;;;2.70;1.40;;;2.92;100.00;94649.11;647036;212;32470;-76
2022/01/31 09:41:30;;;;;;;0.50;0.50;;;2.70;1.40;;;2.90;100.00;94676.16;642855;215;31491;-77
2022/01/31 09:44:24;;;;;;;1.10;0.65;;;2.50;1.40;;;2.79;100.00;94635.13;646300;216;31719;-75
2022/01/31 09:50:07;;;;;;;0.60;0.50;;;2.50;1.40;;;2.84;100.00;94632.19;647523;216;31500;-75
2022/01/31 09:52:55;;;;;;;0.55;0.55;;;2.50;1.40;;;2.87;100.00;94631.84;616357;226;31908;-72
2022/01/31 09:55:44;;;;;;;1.60;0.70;;;2.60;1.40;;;2.92;100.00;94619.66;648398;212;31479;-75
2022/01/31 09:58:31;;;;;;;0.68;0.65;;;2.70;1.40;;;2.94;100.00;94632.98;647482;216;31733;-74
2022/01/31 10:01:19;;;;;;;0.40;0.30;;;2.60;1.40;;;2.99;100.00;94621.15;646260;216;31857;-76
2022/01/31 10:04:01;;;;;;;0.70;0.70;;;2.70;1.40;;;3.04;100.00;94625.23;648048;212;42085;-78
2022/01/31 10:06:44;;;;;;;0.93;0.90;;;2.80;1.40;;;3.04;100.00;94619.52;641924;212;31806;-72
2022/01/31 10:09:28;;;;;;;0.70;0.70;;;2.80;1.40;;;2.99;100.00;94614.40;647251;216;31493;-74
2022/01/31 10:12:18;;;;;;;3.80;0.60;;;2.80;1.40;;;2.99;100.00;94634.05;647071;216;31496;-73
2022/01/31 10:17:39;;;;;;;1.00;0.90;;;2.70;1.40;;;2.96;100.00;94650.05;619618;226;31866;-73
2022/01/31 10:20:25;;;;;;;2.20;0.70;;;2.60;1.40;;;2.96;100.00;94638.38;646622;216;31532;-72
2022/01/31 10:23:10;;;;;;;2.10;0.40;;;2.60;1.40;;;2.99;100.00;94628.27;646805;212;31601;-73
2022/01/31 10:25:51;;;;;;;0.60;0.30;;;2.70;1.40;;;3.05;100.00;94616.13;620028;226;32134;-74
2022/01/31 10:28:33;;;;;;;0.50;0.50;;;2.80;1.40;;;3.11;100.00;94618.77;645910;216;32718;-73
2022/01/31 10:31:21;;;;;;;0.40;0.40;;;2.90;1.40;;;3.10;100.00;94650.37;646083;216;31507;-76
2022/01/31 10:36:00;;;;;;;0.40;0.30;;;2.90;1.40;;;3.12;100.00;94630.38;646457;216;31615;-73
2022/01/31 10:38:50;;;;;;;0.40;0.30;;;3.00;1.40;;;3.15;100.00;94635.72;647091;216;31505;-76
2022/01/31 10:53:13;;;;;;;0.50;0.50;;;2.20;1.40;;;2.58;100.00;94626.80;619062;226;31859;-77
2022/01/31 10:55:55;;;;;;;0.50;0.50;;;2.20;1.40;;;2.48;100.00;94632.63;647642;216;31889;-77
2022/01/31 10:58:36;;;;;;;0.40;0.30;;;2.10;1.40;;;2.36;100.00;94618.05;647358;216;31925;-76
2022/01/31 11:01:20;;;;;;;0.40;0.20;;;2.10;1.40;;;2.31;100.00;94637.53;647571;216;37305;-76
2022/01/31 11:04:03;;;;;;;1.23;1.20;;;2.00;1.40;;;2.48;100.00;94623.20;646656;216;42081;-75
2022/01/31 11:06:44;;;;;;;0.70;0.40;;;2.20;1.40;;;2.72;100.00;94628.69;642077;212;31667;-75
2022/01/31 11:09:31;;;;;;;0.40;0.20;;;2.60;1.40;;;3.14;100.00;94613.82;646067;212;31616;-77
2022/01/31 11:12:13;;;;;;;1.00;0.50;;;3.00;1.40;;;3.08;100.00;94606.74;620436;222;31942;-75
2022/01/31 11:14:57;;;;;;;0.40;0.30;;;2.80;1.40;;;2.99;100.00;94595.55;647128;216;31938;-73
2022/01/31 11:17:40;;;;;;;0.50;0.50;;;2.70;1.40;;;2.92;100.00;94608.11;647099;216;31525;-75
2022/01/31 11:20:22;;;;;;;0.60;0.30;;;2.70;1.40;;;3.07;100.00;94603.31;648036;216;31970;-77
2022/01/31 11:23:04;;;;;;;0.40;0.30;;;2.90;1.40;;;3.07;100.00;94606.53;647671;216;31508;-77
2022/01/31 11:25:51;;;;;;;0.40;0.40;;;2.80;1.40;;;3.01;100.00;94602.13;647023;212;31455;-75
2022/01/31 11:28:40;;;;;;;0.90;0.40;;;3.20;1.40;;;3.43;100.00;94611.83;647415;212;31504;-76
2022/01/31 11:31:26;;;;;;;0.80;0.80;;;3.40;1.40;;;4.18;100.00;94618.20;646991;212;31523;-74
2022/01/31 11:35:55;;;;;;;1.40;0.80;;;4.40;1.40;;;4.45;100.00;94613.95;631214;217;42505;-74
2022/01/31 11:38:38;;;;;;;0.40;0.30;;;4.50;1.40;;;4.70;100.00;94603.34;646562;216;31492;-78
2022/01/31 11:41:20;;;;;;;0.40;0.20;;;4.70;1.40;;;5.39;100.00;94607.11;619698;226;31831;-76
2022/01/31 11:44:06;;;;;;;0.40;0.30;;;5.50;1.40;;;5.27;100.00;94617.18;618601;222;31836;-74
2022/01/31 11:46:48;;;;;;;0.80;0.40;;;4.90;1.40;;;4.72;100.00;94605.63;646306;216;32051;-75
2022/01/31 11:49:45;;;;;;;0.40;0.40;;;4.10;1.40;;;4.56;100.00;94618.73;647849;216;31512;-77
2022/01/31 11:52:33;;;;;;;0.40;0.30;;;3.90;1.40;;;4.17;100.00;94609.69;617807;226;31824;-73
2022/01/31 11:55:22;;;;;;;0.40;0.30;;;3.70;1.40;;;4.16;100.00;94619.24;646506;212;31518;-77
2022/01/31 11:58:04;;;;;;;0.40;0.40;;;3.70;1.40;;;4.12;100.00;94617.30;647478;216;31506;-77
2022/01/31 12:00:47;;;;;;;0.40;0.20;;;3.70;1.40;;;4.08;100.00;94621.19;621340;222;31873;-76
2022/01/31 12:03:30;;;;;;;0.90;0.50;;;3.60;1.40;;;4.03;100.00;94628.04;646366;216;31652;-74
2022/01/31 12:06:14;;;;;;;0.40;0.30;;;3.50;1.40;;;3.89;100.00;94604.77;641880;212;31658;-77
2022/01/31 12:08:55;;;;;;;0.50;0.30;;;3.50;1.40;;;3.96;100.00;94604.52;647125;216;31512;-77
2022/01/31 12:11:52;;;;;;;0.40;0.30;;;3.50;1.40;;;3.87;100.00;94622.97;646720;216;31492;-76
2022/01/31 12:14:45;;;;;;;0.70;0.40;;;3.40;1.40;;;3.84;100.00;94609.55;647757;216;31494;-77
2022/01/31 12:17:35;;;;;;;0.45;0.40;;;3.40;1.40;;;3.71;100.00;94580.53;646874;216;31595;-77
2022/01/31 12:21:52;;;;;;;0.40;0.30;;;3.20;1.40;;;3.82;100.00;94602.22;618606;222;31974;-76
2022/01/31 12:22:57;;;;;;;0.40;0.40;;;3.30;1.40;;;3.93;100.00;94606.38;648113;212;31481;-76
2022/01/31 12:25:41;;;;;;;0.50;0.50;;;3.50;1.40;;;3.98;100.00;94599.89;646321;216;31527;-76
2022/01/31 12:28:33;;;;;;;0.40;0.20;;;3.60;1.40;;;4.15;100.00;94580.91;648462;216;32307;-77
2022/01/31 12:31:24;;;;;;;0.70;0.70;;;3.80;1.40;;;4.30;100.00;94584.09;647679;212;31517;-76
2022/01/31 12:35:52;;;;;;;0.43;0.35;;;3.90;1.40;;;4.30;100.00;94580.00;647222;216;31558;-77
2022/01/31 12:38:33;;;;;;;0.40;0.30;;;3.90;1.40;;;4.21;100.00;94587.38;646947;212;32867;-77
2022/01/31 12:41:30;;;;;;;1.40;0.40;;;3.90;1.40;;;4.27;100.00;94584.56;647996;216;31502;-77